createdAt,value
2023-05-25T00:19:52.940Z,12.60
2023-05-25T00:36:35.198Z,12.40
2023-05-25T00:59:43.767Z,12.40
2023-05-25T01:05:38.337Z,12.30
2023-05-25T01:11:34.290Z,12.20
2023-05-25T01:45:20.214Z,12.00
2023-05-25T02:02:13.108Z,11.90
2023-05-25T02:07:44.778Z,11.90
2023-05-25T02:25:17.980Z,11.70
2023-05-25T02:36:23.884Z,11.60
2023-05-25T02:42:05.797Z,11.50
2023-05-25T02:47:38.216Z,11.50
2023-05-25T03:03:53.350Z,11.30
2023-05-25T03:15:20.710Z,11.20
2023-05-25T03:20:53.992Z,11.10
2023-05-25T03:26:25.904Z,11.00
2023-05-25T03:37:42.213Z,10.90
2023-05-25T03:43:11.064Z,10.70
2023-05-25T03:48:45.100Z,10.60
2023-05-25T03:54:34.512Z,10.60
2023-05-25T04:06:33.589Z,10.50
2023-05-25T04:12:19.515Z,10.40
2023-05-25T04:18:16.711Z,10.30
2023-05-25T04:24:30.820Z,10.30
2023-05-25T04:36:11.265Z,10.30
2023-05-25T04:42:16.454Z,10.40
2023-05-25T04:53:39.966Z,10.50
2023-05-25T04:59:30.790Z,10.60
2023-05-25T05:04:53.058Z,10.70
2023-05-25T05:10:25.241Z,10.70
2023-05-25T05:15:36.624Z,10.90
2023-05-25T05:20:40.765Z,10.90
2023-05-25T05:26:58.312Z,11.10
2023-05-25T05:32:24.144Z,11.30
2023-05-25T05:37:48.125Z,11.40
2023-05-25T05:43:36.424Z,11.60
2023-05-25T05:49:10.498Z,11.80
2023-05-25T05:54:43.342Z,11.90
2023-05-25T06:00:35.693Z,12.10
2023-05-25T06:06:11.494Z,12.30
2023-05-25T06:11:42.569Z,12.50
2023-05-25T06:17:20.665Z,12.70
2023-05-25T06:22:53.546Z,13.00
2023-05-25T06:28:28.270Z,13.30
2023-05-25T06:33:42.028Z,13.60
2023-05-25T06:38:55.863Z,13.80
2023-05-25T06:44:29.459Z,14.10
2023-05-25T06:50:14.265Z,14.30
2023-05-25T06:55:48.529Z,14.70
2023-05-25T07:01:04.336Z,14.90
2023-05-25T07:07:02.231Z,15.20
2023-05-25T07:12:13.124Z,15.40
2023-05-25T07:17:53.161Z,15.70
2023-05-25T07:23:25.227Z,15.80
2023-05-25T07:29:18.288Z,16.00
2023-05-25T07:34:57.099Z,16.20
2023-05-25T07:46:39.852Z,16.60
2023-05-25T07:58:02.531Z,17.00
2023-05-25T08:22:00.516Z,17.50
2023-05-25T08:27:46.258Z,17.70
2023-05-25T08:33:11.132Z,17.80
2023-05-25T08:38:32.083Z,18.10
2023-05-25T08:43:50.124Z,18.40
2023-05-25T08:49:15.302Z,18.70
2023-05-25T08:54:46.340Z,19.00
2023-05-25T09:00:30.849Z,19.30
2023-05-25T09:12:38.433Z,19.60
2023-05-25T09:18:21.165Z,19.70
2023-05-25T22:24:59.434Z,17.30
2023-05-25T22:49:17.241Z,17.00
2023-05-25T22:55:22.470Z,16.90
2023-05-25T23:12:59.354Z,16.60
2023-05-25T23:19:10.283Z,16.50
2023-05-25T23:42:11.617Z,16.20
2023-05-25T23:47:55.656Z,16.00
2023-05-25T23:53:37.642Z,15.90
